createdAt,value
2018-10-01T00:00:03.740Z,4.67
2018-10-01T00:02:32.422Z,6.57
2018-10-01T00:05:01.099Z,4.93
2018-10-01T00:07:29.786Z,8.57
2018-10-01T00:09:58.470Z,7.10
2018-10-01T00:12:27.152Z,7.23
2018-10-01T00:14:55.886Z,8.83
2018-10-01T00:17:24.535Z,9.20
2018-10-01T00:19:58.181Z,5.07
2018-10-01T00:22:31.888Z,5.53
2018-10-01T00:25:00.552Z,7.03
2018-10-01T00:27:29.199Z,7.20
2018-10-01T00:29:57.831Z,5.90
2018-10-01T00:32:26.480Z,12.27
2018-10-01T00:34:55.145Z,5.40
2018-10-01T00:37:23.793Z,7.60
2018-10-01T00:39:52.440Z,5.40
2018-10-01T00:42:21.078Z,5.63
2018-10-01T00:44:49.835Z,5.60
2018-10-01T00:47:18.499Z,6.83
2018-10-01T00:49:47.204Z,5.63
2018-10-01T00:52:15.837Z,6.10
2018-10-01T00:54:44.467Z,5.47
2018-10-01T00:57:13.061Z,5.00
2018-10-01T00:59:41.713Z,5.33
2018-10-01T01:02:10.338Z,8.03
2018-10-01T01:04:38.985Z,11.00
2018-10-01T01:07:07.721Z,5.30
2018-10-01T01:09:36.380Z,6.33
2018-10-01T01:12:05.356Z,6.80
2018-10-01T01:14:34.010Z,6.60
2018-10-01T01:17:02.640Z,5.83
2018-10-01T01:19:31.307Z,6.10
2018-10-01T01:21:59.962Z,6.10
2018-10-01T01:24:28.618Z,7.60
2018-10-01T01:26:57.271Z,5.40
2018-10-01T01:29:25.980Z,9.97
2018-10-01T01:31:54.643Z,5.57
2018-10-01T01:34:23.263Z,5.57
2018-10-01T01:36:51.938Z,8.67
2018-10-01T01:39:20.562Z,5.33
2018-10-01T01:41:49.185Z,5.63
2018-10-01T01:44:17.806Z,5.90
2018-10-01T01:46:46.450Z,7.37
2018-10-01T01:49:15.132Z,5.63
2018-10-01T01:51:43.843Z,5.67
2018-10-01T01:54:12.525Z,6.67
2018-10-01T01:56:41.193Z,6.60
2018-10-01T01:59:09.889Z,5.67
2018-10-01T02:01:38.567Z,8.87
2018-10-01T02:04:07.309Z,7.10
2018-10-01T02:06:35.943Z,6.47
2018-10-01T02:09:06.082Z,7.20
2018-10-01T02:11:34.773Z,7.17
2018-10-01T02:14:03.450Z,10.20
2018-10-01T02:16:32.142Z,7.43
2018-10-01T02:19:00.760Z,7.30
2018-10-01T02:21:30.617Z,10.03
2018-10-01T02:23:59.332Z,5.83
2018-10-01T02:26:28.030Z,7.83
2018-10-01T02:28:56.722Z,8.83
2018-10-01T02:31:25.414Z,7.10
2018-10-01T02:33:54.190Z,6.27
2018-10-01T02:36:22.794Z,5.67
2018-10-01T02:38:51.434Z,6.30
2018-10-01T02:41:20.091Z,8.17
2018-10-01T02:43:48.726Z,5.43
2018-10-01T02:46:17.400Z,6.90
2018-10-01T02:48:46.029Z,11.40
2018-10-01T02:51:14.668Z,5.77
2018-10-01T02:53:48.495Z,5.37
2018-10-01T02:56:17.163Z,6.30
2018-10-01T02:58:45.781Z,10.23
2018-10-01T03:01:14.517Z,6.43
2018-10-01T03:03:43.185Z,6.83
2018-10-01T03:06:11.879Z,7.13
2018-10-01T03:08:40.551Z,6.40
2018-10-01T03:11:09.204Z,8.80
2018-10-01T03:13:37.881Z,11.03
2018-10-01T03:16:07.192Z,11.73
2018-10-01T03:18:35.851Z,9.90
2018-10-01T03:21:04.582Z,10.10
2018-10-01T03:23:33.264Z,12.83
2018-10-01T03:26:02.003Z,11.93
2018-10-01T03:28:30.685Z,7.70
2018-10-01T03:33:33.426Z,7.53
2018-10-01T03:36:02.085Z,8.70
2018-10-01T03:38:30.794Z,9.43
2018-10-01T03:40:59.470Z,7.07
2018-10-01T03:43:28.146Z,9.57
2018-10-01T03:45:56.782Z,7.50
2018-10-01T03:48:25.514Z,7.43
2018-10-01T03:50:54.170Z,11.70
2018-10-01T03:53:22.848Z,8.73
2018-10-01T03:55:51.520Z,14.53
2018-10-01T03:58:20.158Z,9.17
2018-10-01T04:00:48.850Z,7.23
2018-10-01T04:03:23.762Z,8.50
2018-10-01T04:05:52.405Z,8.60
2018-10-01T04:08:21.197Z,7.23
2018-10-01T04:10:49.857Z,7.07
2018-10-01T04:13:18.564Z,7.87
2018-10-01T04:15:47.261Z,9.83
2018-10-01T04:18:15.898Z,9.47
2018-10-01T04:20:49.869Z,10.73
2018-10-01T04:23:18.547Z,8.70
2018-10-01T04:25:47.218Z,8.20
2018-10-01T04:28:15.871Z,11.50
2018-10-01T04:30:44.486Z,7.37
2018-10-01T04:33:13.161Z,9.53
2018-10-01T04:35:41.811Z,9.93
2018-10-01T04:38:10.506Z,11.20
2018-10-01T04:40:39.180Z,8.00
2018-10-01T04:43:07.886Z,7.27
2018-10-01T04:45:36.554Z,6.93
2018-10-01T04:48:05.313Z,8.83
2018-10-01T04:50:33.942Z,7.37
2018-10-01T04:53:02.614Z,7.47
2018-10-01T04:55:31.267Z,9.47
2018-10-01T04:57:59.956Z,7.17
2018-10-01T05:00:28.608Z,8.20
2018-10-01T05:02:57.250Z,7.87
2018-10-01T05:05:25.976Z,7.60
2018-10-01T05:07:54.635Z,9.97
2018-10-01T05:10:23.318Z,7.87
2018-10-01T05:12:51.947Z,13.80
2018-10-01T05:15:20.633Z,7.70
2018-10-01T05:17:49.273Z,8.63
2018-10-01T05:20:17.934Z,11.37
2018-10-01T05:22:46.583Z,9.27
2018-10-01T05:25:15.228Z,6.87
2018-10-01T05:27:43.987Z,7.50
2018-10-01T05:30:12.674Z,8.70
2018-10-01T05:32:41.273Z,7.43
2018-10-01T05:35:09.986Z,9.80
2018-10-01T05:37:38.703Z,7.47
2018-10-01T05:40:07.406Z,9.37
2018-10-01T05:42:36.061Z,8.37
2018-10-01T05:45:04.926Z,7.00
2018-10-01T05:47:33.597Z,6.70
2018-10-01T05:50:02.311Z,7.37
2018-10-01T05:52:30.969Z,11.50
2018-10-01T05:54:59.629Z,10.70
2018-10-01T05:57:28.275Z,14.53
2018-10-01T05:59:56.947Z,8.20
2018-10-01T06:02:25.752Z,10.63
2018-10-01T06:04:54.487Z,11.23
2018-10-01T06:07:23.131Z,8.70
2018-10-01T06:09:51.822Z,10.17
2018-10-01T06:12:20.495Z,7.33
2018-10-01T06:14:49.186Z,13.00
2018-10-01T06:17:17.849Z,6.70
2018-10-01T06:19:46.530Z,7.30
2018-10-01T06:22:15.215Z,10.80
2018-10-01T06:24:43.875Z,9.70
2018-10-01T06:27:12.661Z,10.30
2018-10-01T06:29:41.338Z,6.70
2018-10-01T06:32:10.071Z,7.77
2018-10-01T06:34:38.769Z,10.13
2018-10-01T06:37:07.441Z,7.57
2018-10-01T06:39:36.150Z,11.30
2018-10-01T06:42:04.857Z,16.13
2018-10-01T06:44:33.570Z,13.00
2018-10-01T06:47:02.209Z,13.83
2018-10-01T06:49:30.894Z,9.73
2018-10-01T06:51:59.582Z,8.37
2018-10-01T06:54:28.285Z,12.10
2018-10-01T06:56:57.994Z,11.10
2018-10-01T06:59:26.678Z,9.00
2018-10-01T07:01:55.362Z,11.60
2018-10-01T07:04:24.157Z,9.20
2018-10-01T07:06:52.841Z,18.37
2018-10-01T07:09:21.514Z,26.23
2018-10-01T07:11:50.236Z,10.93
2018-10-01T07:14:18.957Z,10.63
2018-10-01T07:16:47.771Z,20.80
2018-10-01T07:19:16.548Z,10.63
2018-10-01T07:21:45.306Z,14.67
2018-10-01T07:24:14.081Z,11.87
2018-10-01T07:26:42.707Z,10.63
2018-10-01T07:29:11.414Z,7.00
2018-10-01T07:31:40.097Z,6.90
2018-10-01T07:34:08.789Z,8.27
2018-10-01T07:36:37.467Z,9.67
2018-10-01T07:39:08.092Z,11.40
2018-10-01T07:41:36.704Z,10.00
2018-10-01T07:44:05.400Z,6.57
2018-10-01T07:46:34.053Z,11.40
2018-10-01T07:49:02.758Z,9.17
2018-10-01T07:51:31.530Z,9.93
2018-10-01T07:54:00.224Z,7.40
2018-10-01T07:56:28.849Z,8.40
2018-10-01T07:58:57.511Z,10.57
2018-10-01T08:01:26.170Z,10.17
2018-10-01T08:03:54.808Z,6.97
2018-10-01T08:06:23.564Z,8.60
2018-10-01T08:08:52.230Z,13.00
2018-10-01T08:11:21.027Z,8.13
2018-10-01T08:13:49.786Z,7.80
2018-10-01T08:16:18.496Z,16.67
2018-10-01T08:18:47.178Z,12.67
2018-10-01T08:21:15.856Z,10.83
2018-10-01T08:23:44.569Z,12.13
2018-10-01T08:26:13.360Z,11.13
2018-10-01T08:28:41.958Z,9.87
2018-10-01T08:31:10.655Z,10.00
2018-10-01T08:33:39.385Z,12.63
2018-10-01T08:36:08.262Z,10.10
2018-10-01T08:38:37.119Z,7.67
2018-10-01T08:41:05.900Z,11.03
2018-10-01T08:43:34.501Z,9.43
2018-10-01T08:46:03.234Z,12.00
2018-10-01T08:48:33.750Z,11.93
2018-10-01T08:51:11.232Z,7.93
2018-10-01T08:53:45.266Z,7.37
2018-10-01T08:56:13.977Z,9.53
2018-10-01T08:58:42.590Z,10.27
2018-10-01T09:01:11.393Z,13.57
2018-10-01T09:03:40.045Z,8.23
2018-10-01T09:06:08.842Z,9.10
2018-10-01T09:08:37.622Z,8.00
2018-10-01T09:11:06.426Z,12.90
2018-10-01T09:13:35.098Z,13.77
2018-10-01T09:16:03.821Z,7.87
2018-10-01T09:18:32.532Z,8.17
2018-10-01T09:21:01.200Z,11.73
2018-10-01T09:23:29.908Z,15.60
2018-10-01T09:25:58.608Z,16.63
2018-10-01T09:28:27.388Z,11.40
2018-10-01T09:30:56.137Z,10.10
2018-10-01T09:33:24.755Z,11.60
2018-10-01T09:35:53.534Z,10.17
2018-10-01T09:38:22.239Z,14.50
2018-10-01T09:40:50.909Z,10.87
2018-10-01T09:43:19.597Z,9.60
2018-10-01T09:45:48.287Z,7.37
2018-10-01T09:48:16.966Z,7.37
2018-10-01T09:50:45.663Z,12.37
2018-10-01T09:53:14.322Z,9.30
2018-10-01T09:55:42.998Z,9.53
2018-10-01T09:58:11.722Z,13.17
2018-10-01T10:00:43.853Z,8.93
2018-10-01T10:03:12.957Z,8.73
2018-10-01T10:05:41.716Z,9.97
2018-10-01T10:08:10.468Z,8.30
2018-10-01T10:10:39.152Z,10.73
2018-10-01T10:13:07.962Z,15.30
2018-10-01T10:15:36.829Z,11.33
2018-10-01T10:18:05.839Z,8.07
2018-10-01T10:20:34.658Z,11.63
2018-10-01T10:23:03.435Z,7.40
2018-10-01T10:25:32.314Z,7.00
2018-10-01T10:28:01.132Z,9.33
2018-10-01T10:30:30.103Z,9.00
2018-10-01T10:32:58.917Z,11.47
2018-10-01T10:35:27.805Z,9.40
2018-10-01T10:37:56.637Z,12.53
2018-10-01T10:40:25.357Z,9.40
2018-10-01T10:42:54.248Z,10.63
2018-10-01T10:45:22.973Z,8.30
2018-10-01T10:47:51.674Z,7.77
2018-10-01T10:50:20.457Z,11.30
2018-10-01T10:52:49.146Z,10.67
2018-10-01T10:55:17.864Z,6.37
2018-10-01T10:57:46.808Z,10.93
2018-10-01T11:00:15.524Z,8.67
2018-10-01T11:02:44.230Z,8.43
2018-10-01T11:05:12.963Z,8.27
2018-10-01T11:07:41.689Z,10.90
2018-10-01T11:10:10.478Z,9.93
2018-10-01T11:12:39.276Z,9.20
2018-10-01T11:15:08.840Z,13.40
2018-10-01T11:17:37.422Z,8.30
2018-10-01T11:20:06.433Z,8.07
2018-10-01T11:22:35.201Z,14.33
2018-10-01T11:25:03.979Z,16.97
2018-10-01T11:27:32.706Z,16.50
2018-10-01T11:30:01.407Z,12.97
2018-10-01T11:32:30.155Z,13.50
2018-10-01T11:34:59.111Z,14.43
2018-10-01T11:37:27.599Z,9.80
2018-10-01T11:39:56.399Z,13.30
2018-10-01T11:42:25.153Z,9.73
2018-10-01T11:44:54.384Z,18.10
2018-10-01T11:47:23.245Z,11.37
2018-10-01T11:49:52.009Z,9.10
2018-10-01T11:52:20.726Z,16.97
2018-10-01T11:54:49.460Z,12.13
2018-10-01T11:57:18.282Z,16.30
2018-10-01T11:59:47.024Z,12.93
2018-10-01T12:02:15.856Z,15.40
2018-10-01T12:04:44.636Z,13.63
2018-10-01T12:07:13.379Z,11.67
2018-10-01T12:09:42.278Z,18.73
2018-10-01T12:12:11.041Z,18.13
2018-10-01T12:14:39.802Z,17.10
2018-10-01T12:17:08.566Z,12.57
2018-10-01T12:19:37.336Z,19.23
2018-10-01T12:22:06.641Z,18.10
2018-10-01T12:24:35.326Z,16.20
2018-10-01T12:27:04.071Z,12.03
2018-10-01T12:29:32.753Z,11.60
2018-10-01T12:32:01.524Z,11.50
2018-10-01T12:34:30.342Z,13.77
2018-10-01T12:36:59.135Z,11.37
2018-10-01T12:39:27.989Z,11.03
2018-10-01T12:41:56.713Z,15.27
2018-10-01T12:44:25.461Z,11.97
2018-10-01T12:46:54.327Z,13.50
2018-10-01T12:49:23.167Z,13.73
2018-10-01T12:51:52.059Z,13.23
2018-10-01T12:54:20.810Z,10.47
2018-10-01T12:56:49.763Z,12.20
2018-10-01T12:59:18.577Z,10.03
2018-10-01T13:01:47.435Z,11.73
2018-10-01T13:04:17.203Z,12.37
2018-10-01T13:06:46.040Z,10.10
2018-10-01T13:09:14.752Z,9.63
2018-10-01T13:11:43.515Z,13.80
2018-10-01T13:14:12.332Z,11.00
2018-10-01T13:16:41.047Z,11.93
2018-10-01T13:19:09.750Z,15.97
2018-10-01T13:21:38.564Z,13.70
2018-10-01T13:24:07.446Z,11.87
2018-10-01T13:26:36.135Z,11.60
2018-10-01T13:29:04.862Z,11.00
2018-10-01T13:31:33.598Z,11.20
2018-10-01T13:34:02.325Z,14.57
2018-10-01T13:36:31.136Z,13.37
2018-10-01T13:39:04.961Z,11.07
2018-10-01T13:41:33.730Z,10.30
2018-10-01T13:44:02.474Z,15.67
2018-10-01T13:46:31.496Z,15.33
2018-10-01T13:49:00.274Z,22.07
2018-10-01T13:51:29.043Z,16.70
2018-10-01T13:53:57.777Z,10.10
2018-10-01T13:56:26.557Z,10.57
2018-10-01T13:58:55.402Z,18.03
2018-10-01T14:01:24.282Z,12.50
2018-10-01T14:03:53.043Z,14.57
2018-10-01T14:06:21.840Z,13.03
2018-10-01T14:08:50.597Z,16.60
2018-10-01T14:11:19.379Z,12.37
2018-10-01T14:13:48.414Z,22.50
2018-10-01T14:16:17.062Z,13.77
2018-10-01T14:18:45.949Z,19.70
2018-10-01T14:21:14.887Z,15.20
2018-10-01T14:23:43.745Z,20.27
2018-10-01T14:26:12.587Z,14.23
2018-10-01T14:28:41.300Z,16.17
2018-10-01T14:31:10.203Z,18.70
2018-10-01T14:33:38.887Z,18.30
2018-10-01T14:36:07.747Z,17.70
2018-10-01T14:38:36.480Z,16.77
2018-10-01T14:41:05.218Z,20.80
2018-10-01T14:43:33.946Z,23.93
2018-10-01T14:46:02.666Z,17.80
2018-10-01T14:48:31.456Z,20.70
2018-10-01T14:51:00.216Z,17.20
2018-10-01T14:53:28.935Z,16.23
2018-10-01T14:55:57.671Z,18.83
2018-10-01T14:58:26.370Z,26.67
2018-10-01T15:00:55.190Z,17.03
2018-10-01T15:03:23.960Z,19.13
2018-10-01T15:05:52.783Z,18.47
2018-10-01T15:08:21.590Z,18.87
2018-10-01T15:10:50.460Z,17.67
2018-10-01T15:13:19.235Z,22.10
2018-10-01T15:15:48.064Z,20.27
2018-10-01T15:18:17.217Z,20.90
2018-10-01T15:20:45.982Z,22.50
2018-10-01T15:23:14.804Z,24.90
2018-10-01T15:25:43.595Z,22.40
2018-10-01T15:28:12.445Z,28.37
2018-10-01T15:30:41.326Z,22.47
2018-10-01T15:33:09.971Z,24.23
2018-10-01T15:35:38.812Z,23.07
2018-10-01T15:38:08.740Z,19.10
2018-10-01T15:40:37.622Z,27.60
2018-10-01T15:43:07.408Z,23.00
2018-10-01T15:45:36.238Z,25.23
2018-10-01T15:48:04.995Z,26.27
2018-10-01T15:50:33.826Z,24.43
2018-10-01T15:53:02.594Z,23.30
2018-10-01T15:55:31.402Z,26.00
2018-10-01T15:58:00.206Z,24.77
2018-10-01T16:00:28.983Z,23.17
2018-10-01T16:02:57.945Z,23.23
2018-10-01T16:05:26.700Z,29.80
2018-10-01T16:07:55.462Z,24.40
2018-10-01T16:10:24.347Z,22.43
2018-10-01T16:12:53.115Z,25.80
2018-10-01T16:15:22.039Z,26.40
2018-10-01T16:17:50.822Z,30.57
2018-10-01T16:20:19.512Z,26.67
2018-10-01T16:22:48.357Z,25.70
2018-10-01T16:25:17.185Z,27.83
2018-10-01T16:27:45.929Z,23.80
2018-10-01T16:30:14.674Z,31.90
2018-10-01T16:32:43.474Z,27.03
2018-10-01T16:35:12.350Z,32.57
2018-10-01T16:37:41.616Z,31.60
2018-10-01T16:40:10.410Z,32.30
2018-10-01T16:42:39.190Z,35.70
2018-10-01T16:45:08.178Z,32.10
2018-10-01T16:47:37.039Z,33.00
2018-10-01T16:50:05.990Z,31.67
2018-10-01T16:52:34.863Z,27.80
2018-10-01T16:55:03.752Z,35.70
2018-10-01T16:57:33.843Z,34.63
2018-10-01T17:00:02.901Z,33.30
2018-10-01T17:02:31.790Z,33.73
2018-10-01T17:05:00.625Z,33.77
2018-10-01T17:07:30.124Z,30.50
2018-10-01T17:10:00.898Z,29.37
2018-10-01T17:12:30.189Z,34.83
2018-10-01T17:14:59.453Z,38.50
2018-10-01T17:17:28.468Z,43.83
2018-10-01T17:19:57.579Z,37.10
2018-10-01T17:22:26.362Z,29.00
2018-10-01T17:24:55.144Z,31.73
2018-10-01T17:27:23.847Z,34.20
2018-10-01T17:29:52.647Z,31.17
2018-10-01T17:32:21.459Z,28.57
2018-10-01T17:34:50.216Z,31.23
2018-10-01T17:37:18.988Z,31.77
2018-10-01T17:39:47.731Z,31.30
2018-10-01T17:42:16.543Z,36.40
2018-10-01T17:44:45.360Z,36.23
2018-10-01T17:47:14.100Z,35.30
2018-10-01T17:49:42.949Z,38.10
2018-10-01T17:52:11.818Z,36.27
2018-10-01T17:54:47.222Z,34.90
2018-10-01T17:57:16.855Z,37.73
2018-10-01T17:59:45.927Z,35.40
2018-10-01T18:02:14.660Z,35.97
2018-10-01T18:04:43.459Z,36.80
2018-10-01T18:07:12.246Z,38.70
2018-10-01T18:09:41.176Z,36.17
2018-10-01T18:12:10.118Z,40.27
2018-10-01T18:14:38.894Z,35.60
2018-10-01T18:17:07.650Z,39.20
2018-10-01T18:19:36.494Z,36.17
2018-10-01T18:22:05.313Z,34.60
2018-10-01T18:24:34.126Z,36.67
2018-10-01T18:27:02.847Z,35.40
2018-10-01T18:29:31.608Z,38.40
2018-10-01T18:32:00.516Z,30.80
2018-10-01T18:34:29.327Z,44.13
2018-10-01T18:36:58.016Z,37.03
2018-10-01T18:39:29.365Z,34.37
2018-10-01T18:41:58.572Z,35.27
2018-10-01T18:44:27.300Z,36.00
2018-10-01T18:46:56.112Z,29.00
2018-10-01T18:49:24.947Z,34.07
2018-10-01T18:51:53.757Z,33.43
2018-10-01T18:54:22.524Z,29.13
2018-10-01T18:56:51.414Z,28.37
2018-10-01T18:59:20.198Z,28.83
2018-10-01T19:01:48.979Z,27.23
2018-10-01T19:04:17.856Z,24.40
2018-10-01T19:06:46.662Z,33.60
2018-10-01T19:09:15.564Z,30.80
2018-10-01T19:11:44.398Z,25.60
2018-10-01T19:14:13.379Z,28.13
2018-10-01T19:16:42.240Z,28.03
2018-10-01T19:19:11.056Z,25.83
2018-10-01T19:21:40.036Z,27.13
2018-10-01T19:24:08.832Z,25.80
2018-10-01T19:26:37.613Z,23.10
2018-10-01T19:29:06.503Z,21.93
2018-10-01T19:31:35.380Z,25.60
2018-10-01T19:34:04.302Z,29.87
2018-10-01T19:36:33.264Z,24.80
2018-10-01T19:39:02.099Z,22.20
2018-10-01T19:41:31.165Z,20.17
2018-10-01T19:44:00.064Z,17.53
2018-10-01T19:46:28.859Z,25.20
2018-10-01T19:48:57.781Z,22.07
2018-10-01T19:51:26.603Z,20.53
2018-10-01T19:53:55.571Z,20.70
2018-10-01T19:56:24.470Z,21.67
2018-10-01T19:58:53.326Z,21.20
2018-10-01T20:01:22.239Z,18.80
2018-10-01T20:03:51.090Z,19.67
2018-10-01T20:06:19.985Z,18.20
2018-10-01T20:08:48.834Z,17.70
2018-10-01T20:11:17.816Z,16.60
2018-10-01T20:13:46.622Z,15.77
2018-10-01T20:16:15.530Z,19.93
2018-10-01T20:18:44.399Z,15.70
2018-10-01T20:21:13.356Z,16.67
2018-10-01T20:23:42.245Z,19.37
2018-10-01T20:26:11.023Z,13.53
2018-10-01T20:28:39.998Z,24.00
2018-10-01T20:31:08.679Z,16.63
2018-10-01T20:33:37.444Z,19.43
2018-10-01T20:36:06.422Z,15.00
2018-10-01T20:38:35.134Z,15.93
2018-10-01T20:41:04.164Z,19.30
2018-10-01T20:43:32.896Z,20.60
2018-10-01T20:46:01.683Z,21.67
2018-10-01T20:48:30.408Z,23.90
2018-10-01T20:50:59.150Z,22.03
2018-10-01T20:53:28.034Z,23.00
2018-10-01T20:55:56.795Z,25.03
2018-10-01T20:58:25.570Z,21.63
2018-10-01T21:00:54.295Z,23.27
2018-10-01T21:03:23.310Z,22.50
2018-10-01T21:05:52.033Z,21.70
2018-10-01T21:08:20.889Z,23.60
2018-10-01T21:10:49.688Z,21.93
2018-10-01T21:13:18.543Z,25.30
2018-10-01T21:15:47.266Z,24.23
2018-10-01T21:18:15.993Z,20.80
2018-10-01T21:20:44.817Z,21.80
2018-10-01T21:23:13.525Z,27.47
2018-10-01T21:25:42.285Z,23.63
2018-10-01T21:28:12.491Z,22.40
2018-10-01T21:30:41.186Z,18.53
2018-10-01T21:33:09.990Z,19.63
2018-10-01T21:35:38.724Z,16.77
2018-10-01T21:38:07.475Z,18.00
2018-10-01T21:40:36.202Z,16.63
2018-10-01T21:43:04.957Z,16.27
2018-10-01T21:45:33.754Z,15.63
2018-10-01T21:48:02.465Z,15.93
2018-10-01T21:50:31.154Z,19.57
2018-10-01T21:52:59.965Z,16.33
2018-10-01T21:55:28.697Z,16.10
2018-10-01T21:57:57.447Z,19.03
2018-10-01T22:00:26.282Z,16.40
2018-10-01T22:02:55.026Z,16.53
2018-10-01T22:05:23.774Z,17.57
2018-10-01T22:07:52.559Z,15.63
2018-10-01T22:10:21.292Z,15.37
2018-10-01T22:12:50.054Z,16.40
2018-10-01T22:15:18.782Z,16.60
2018-10-01T22:17:47.479Z,20.30
2018-10-01T22:20:16.186Z,16.80
2018-10-01T22:22:44.836Z,17.77
2018-10-01T22:25:13.491Z,17.57
2018-10-01T22:27:42.194Z,18.33
2018-10-01T22:30:10.872Z,18.23
2018-10-01T22:32:39.515Z,18.33
2018-10-01T22:35:08.214Z,18.40
2018-10-01T22:37:36.886Z,17.20
2018-10-01T22:40:05.708Z,19.53
2018-10-01T22:42:34.451Z,20.43
2018-10-01T22:45:03.146Z,19.03
2018-10-01T22:47:31.873Z,18.73
2018-10-01T22:50:06.008Z,16.43
2018-10-01T22:52:34.687Z,17.33
2018-10-01T22:55:03.360Z,18.20
2018-10-01T22:57:32.094Z,18.10
2018-10-01T23:00:00.762Z,18.10
2018-10-01T23:02:29.466Z,18.57
2018-10-01T23:04:58.155Z,18.10
2018-10-01T23:07:26.837Z,17.97
2018-10-01T23:09:55.477Z,16.97
2018-10-01T23:12:24.134Z,21.27
2018-10-01T23:14:52.785Z,17.30
2018-10-01T23:17:21.458Z,17.27
2018-10-01T23:19:50.113Z,16.90
2018-10-01T23:22:18.809Z,15.57
2018-10-01T23:24:47.525Z,16.70
2018-10-01T23:27:16.165Z,16.70
2018-10-01T23:29:44.840Z,15.30
2018-10-01T23:32:13.604Z,13.10
2018-10-01T23:34:42.205Z,12.83
2018-10-01T23:37:10.852Z,15.47
2018-10-01T23:39:39.538Z,15.60
2018-10-01T23:42:08.242Z,15.73
2018-10-01T23:44:36.853Z,15.00
2018-10-01T23:47:05.598Z,12.20
2018-10-01T23:49:34.327Z,13.40
2018-10-01T23:52:02.979Z,19.00
2018-10-01T23:54:31.683Z,12.27
2018-10-01T23:57:00.353Z,13.37
2018-10-01T23:59:29.042Z,13.00
